sensor_id;sensor_type;location;lat;lon;timestamp;temperature;humidity
57566;DHT22;63999;43.882;-0.310;2022-10-16T00:01:12;19.50;79.50
57566;DHT22;63999;43.882;-0.310;2022-10-16T00:03:40;19.60;81.50
57566;DHT22;63999;43.882;-0.310;2022-10-16T00:06:06;19.60;81.10
57566;DHT22;63999;43.882;-0.310;2022-10-16T00:08:33;19.50;78.30
57566;DHT22;63999;43.882;-0.310;2022-10-16T00:11:04;19.50;79.60
57566;DHT22;63999;43.882;-0.310;2022-10-16T00:13:32;19.50;80.80
57566;DHT22;63999;43.882;-0.310;2022-10-16T00:15:59;19.50;78.70
57566;DHT22;63999;43.882;-0.310;2022-10-16T00:18:26;19.50;78.30
57566;DHT22;63999;43.882;-0.310;2022-10-16T00:20:53;19.50;79.50
57566;DHT22;63999;43.882;-0.310;2022-10-16T00:23:19;19.50;79.00
57566;DHT22;63999;43.882;-0.310;2022-10-16T00:25:53;19.50;78.60
57566;DHT22;63999;43.882;-0.310;2022-10-16T00:28:19;19.50;80.00
57566;DHT22;63999;43.882;-0.310;2022-10-16T00:30:45;19.50;80.00
57566;DHT22;63999;43.882;-0.310;2022-10-16T00:33:10;19.50;80.30
57566;DHT22;63999;43.882;-0.310;2022-10-16T00:35:36;19.50;79.60
57566;DHT22;63999;43.882;-0.310;2022-10-16T00:38:02;19.50;79.50
57566;DHT22;63999;43.882;-0.310;2022-10-16T00:40:28;19.50;79.40
57566;DHT22;63999;43.882;-0.310;2022-10-16T00:42:54;19.50;78.90
57566;DHT22;63999;43.882;-0.310;2022-10-16T00:45:19;19.50;79.10
57566;DHT22;63999;43.882;-0.310;2022-10-16T00:47:46;19.50;79.80
57566;DHT22;63999;43.882;-0.310;2022-10-16T00:50:31;19.50;81.50
57566;DHT22;63999;43.882;-0.310;2022-10-16T00:52:59;19.50;81.90
57566;DHT22;63999;43.882;-0.310;2022-10-16T00:55:26;19.50;81.50
57566;DHT22;63999;43.882;-0.310;2022-10-16T00:57:53;19.50;81.50
57566;DHT22;63999;43.882;-0.310;2022-10-16T01:00:24;19.50;80.80
57566;DHT22;63999;43.882;-0.310;2022-10-16T01:02:55;19.50;81.60
57566;DHT22;63999;43.882;-0.310;2022-10-16T01:05:23;19.50;80.80
57566;DHT22;63999;43.882;-0.310;2022-10-16T01:10:54;19.40;81.00
57566;DHT22;63999;43.882;-0.310;2022-10-16T01:13:52;19.40;79.80
57566;DHT22;63999;43.882;-0.310;2022-10-16T01:16:40;19.40;80.30
57566;DHT22;63999;43.882;-0.310;2022-10-16T01:19:14;19.30;79.20
57566;DHT22;63999;43.882;-0.310;2022-10-16T01:21:42;19.30;80.20
57566;DHT22;63999;43.882;-0.310;2022-10-16T01:32:48;19.30;81.80
57566;DHT22;63999;43.882;-0.310;2022-10-16T01:35:26;19.30;80.20
57566;DHT22;63999;43.882;-0.310;2022-10-16T01:38:00;19.20;80.10
57566;DHT22;63999;43.882;-0.310;2022-10-16T01:40:28;19.10;79.00
57566;DHT22;63999;43.882;-0.310;2022-10-16T01:43:05;19.10;81.10
57566;DHT22;63999;43.882;-0.310;2022-10-16T01:45:34;19.10;79.00
57566;DHT22;63999;43.882;-0.310;2022-10-16T01:48:02;19.00;79.30
57566;DHT22;63999;43.882;-0.310;2022-10-16T01:50:32;19.00;79.30
57566;DHT22;63999;43.882;-0.310;2022-10-16T01:53:00;19.10;79.50
57566;DHT22;63999;43.882;-0.310;2022-10-16T01:55:30;19.10;80.80
57566;DHT22;63999;43.882;-0.310;2022-10-16T01:57:59;19.20;81.90
57566;DHT22;63999;43.882;-0.310;2022-10-16T02:00:27;19.20;82.00
57566;DHT22;63999;43.882;-0.310;2022-10-16T02:02:54;19.20;81.60
57566;DHT22;63999;43.882;-0.310;2022-10-16T02:08:04;19.20;80.10
57566;DHT22;63999;43.882;-0.310;2022-10-16T02:10:30;19.20;81.20
57566;DHT22;63999;43.882;-0.310;2022-10-16T02:13:02;19.20;80.70
57566;DHT22;63999;43.882;-0.310;2022-10-16T02:15:28;19.20;80.60
57566;DHT22;63999;43.882;-0.310;2022-10-16T02:17:55;19.20;81.70
57566;DHT22;63999;43.882;-0.310;2022-10-16T02:20:25;19.20;81.10
57566;DHT22;63999;43.882;-0.310;2022-10-16T02:22:54;19.20;80.80
57566;DHT22;63999;43.882;-0.310;2022-10-16T02:25:30;19.20;80.40
57566;DHT22;63999;43.882;-0.310;2022-10-16T02:30:50;19.10;81.00
57566;DHT22;63999;43.882;-0.310;2022-10-16T02:33:19;19.20;82.70
57566;DHT22;63999;43.882;-0.310;2022-10-16T02:35:47;19.20;82.40
57566;DHT22;63999;43.882;-0.310;2022-10-16T02:38:15;19.20;82.30
57566;DHT22;63999;43.882;-0.310;2022-10-16T02:40:42;19.10;82.30
57566;DHT22;63999;43.882;-0.310;2022-10-16T02:43:08;19.10;81.20
57566;DHT22;63999;43.882;-0.310;2022-10-16T02:45:35;19.10;81.70
57566;DHT22;63999;43.882;-0.310;2022-10-16T02:48:01;19.10;81.70
57566;DHT22;63999;43.882;-0.310;2022-10-16T02:50:27;19.10;81.50
57566;DHT22;63999;43.882;-0.310;2022-10-16T02:52:52;19.10;82.30
57566;DHT22;63999;43.882;-0.310;2022-10-16T02:55:18;19.10;82.50
57566;DHT22;63999;43.882;-0.310;2022-10-16T02:57:44;19.10;83.00
57566;DHT22;63999;43.882;-0.310;2022-10-16T03:00:12;19.10;83.00
57566;DHT22;63999;43.882;-0.310;2022-10-16T03:02:38;19.10;82.90
57566;DHT22;63999;43.882;-0.310;2022-10-16T03:05:05;19.10;82.40
57566;DHT22;63999;43.882;-0.310;2022-10-16T03:07:30;19.10;82.70
57566;DHT22;63999;43.882;-0.310;2022-10-16T03:09:56;19.10;83.20
57566;DHT22;63999;43.882;-0.310;2022-10-16T03:12:26;19.10;83.00
57566;DHT22;63999;43.882;-0.310;2022-10-16T03:14:51;19.10;83.70
57566;DHT22;63999;43.882;-0.310;2022-10-16T03:17:17;19.10;83.40
57566;DHT22;63999;43.882;-0.310;2022-10-16T03:19:43;19.10;83.50
57566;DHT22;63999;43.882;-0.310;2022-10-16T03:22:09;19.10;83.80
57566;DHT22;63999;43.882;-0.310;2022-10-16T03:24:34;19.00;84.10
57566;DHT22;63999;43.882;-0.310;2022-10-16T03:27:00;19.00;83.60
57566;DHT22;63999;43.882;-0.310;2022-10-16T03:29:26;19.00;83.70
57566;DHT22;63999;43.882;-0.310;2022-10-16T03:31:53;19.00;83.30
57566;DHT22;63999;43.882;-0.310;2022-10-16T03:34:18;19.00;84.30
57566;DHT22;63999;43.882;-0.310;2022-10-16T03:36:44;19.00;83.50
57566;DHT22;63999;43.882;-0.310;2022-10-16T03:39:10;19.00;84.10
57566;DHT22;63999;43.882;-0.310;2022-10-16T03:41:36;19.00;83.80
57566;DHT22;63999;43.882;-0.310;2022-10-16T03:44:01;19.00;83.50
57566;DHT22;63999;43.882;-0.310;2022-10-16T03:46:27;18.90;83.50
57566;DHT22;63999;43.882;-0.310;2022-10-16T03:48:53;18.90;83.60
57566;DHT22;63999;43.882;-0.310;2022-10-16T03:51:18;18.90;84.30
57566;DHT22;63999;43.882;-0.310;2022-10-16T03:53:44;18.90;83.40
57566;DHT22;63999;43.882;-0.310;2022-10-16T03:56:10;18.90;83.40
57566;DHT22;63999;43.882;-0.310;2022-10-16T03:58:36;18.90;83.60
57566;DHT22;63999;43.882;-0.310;2022-10-16T04:01:01;18.90;83.90
57566;DHT22;63999;43.882;-0.310;2022-10-16T04:03:27;18.90;83.00
57566;DHT22;63999;43.882;-0.310;2022-10-16T04:05:53;18.80;82.40
57566;DHT22;63999;43.882;-0.310;2022-10-16T04:08:18;18.80;81.70
57566;DHT22;63999;43.882;-0.310;2022-10-16T04:10:45;18.80;83.00
57566;DHT22;63999;43.882;-0.310;2022-10-16T04:13:11;18.80;83.70
57566;DHT22;63999;43.882;-0.310;2022-10-16T04:15:37;18.80;84.00
57566;DHT22;63999;43.882;-0.310;2022-10-16T04:18:03;18.80;83.50
57566;DHT22;63999;43.882;-0.310;2022-10-16T04:20:29;18.80;83.60
57566;DHT22;63999;43.882;-0.310;2022-10-16T04:22:55;18.80;83.60
57566;DHT22;63999;43.882;-0.310;2022-10-16T04:25:21;18.80;83.70
57566;DHT22;63999;43.882;-0.310;2022-10-16T04:27:47;18.80;84.10
57566;DHT22;63999;43.882;-0.310;2022-10-16T04:30:13;18.80;84.20
57566;DHT22;63999;43.882;-0.310;2022-10-16T04:32:39;18.80;83.70
57566;DHT22;63999;43.882;-0.310;2022-10-16T04:35:06;18.80;84.40
57566;DHT22;63999;43.882;-0.310;2022-10-16T04:37:32;18.80;84.10
57566;DHT22;63999;43.882;-0.310;2022-10-16T04:39:57;18.80;82.70
57566;DHT22;63999;43.882;-0.310;2022-10-16T04:42:23;18.70;84.00
57566;DHT22;63999;43.882;-0.310;2022-10-16T04:44:49;18.70;83.50
57566;DHT22;63999;43.882;-0.310;2022-10-16T04:47:15;18.70;83.70
57566;DHT22;63999;43.882;-0.310;2022-10-16T04:49:41;18.70;83.70
57566;DHT22;63999;43.882;-0.310;2022-10-16T04:52:07;18.70;84.50
57566;DHT22;63999;43.882;-0.310;2022-10-16T04:54:35;18.70;83.80
57566;DHT22;63999;43.882;-0.310;2022-10-16T04:57:01;18.70;83.90
57566;DHT22;63999;43.882;-0.310;2022-10-16T04:59:26;18.70;81.70
57566;DHT22;63999;43.882;-0.310;2022-10-16T05:01:52;18.60;83.30
57566;DHT22;63999;43.882;-0.310;2022-10-16T05:04:18;18.60;81.70
57566;DHT22;63999;43.882;-0.310;2022-10-16T05:06:44;18.60;84.30
57566;DHT22;63999;43.882;-0.310;2022-10-16T05:09:10;18.60;82.60
57566;DHT22;63999;43.882;-0.310;2022-10-16T05:11:36;18.50;81.10
57566;DHT22;63999;43.882;-0.310;2022-10-16T05:14:02;18.50;81.60
57566;DHT22;63999;43.882;-0.310;2022-10-16T05:16:29;18.50;82.00
57566;DHT22;63999;43.882;-0.310;2022-10-16T05:18:56;18.40;81.50
57566;DHT22;63999;43.882;-0.310;2022-10-16T05:21:22;18.50;82.90
57566;DHT22;63999;43.882;-0.310;2022-10-16T05:23:48;18.50;82.90
57566;DHT22;63999;43.882;-0.310;2022-10-16T05:26:15;18.50;82.20
57566;DHT22;63999;43.882;-0.310;2022-10-16T05:28:40;18.50;82.20
57566;DHT22;63999;43.882;-0.310;2022-10-16T05:31:09;18.60;83.20
57566;DHT22;63999;43.882;-0.310;2022-10-16T05:33:35;18.60;83.20
57566;DHT22;63999;43.882;-0.310;2022-10-16T05:36:10;18.60;83.30
57566;DHT22;63999;43.882;-0.310;2022-10-16T05:38:36;18.60;84.00
57566;DHT22;63999;43.882;-0.310;2022-10-16T05:41:03;18.50;83.40
57566;DHT22;63999;43.882;-0.310;2022-10-16T05:43:30;18.60;84.00
57566;DHT22;63999;43.882;-0.310;2022-10-16T05:46:02;18.50;81.20
57566;DHT22;63999;43.882;-0.310;2022-10-16T05:48:29;18.50;80.50
57566;DHT22;63999;43.882;-0.310;2022-10-16T05:51:02;18.40;80.10
57566;DHT22;63999;43.882;-0.310;2022-10-16T05:53:30;18.30;79.40
57566;DHT22;63999;43.882;-0.310;2022-10-16T05:55:57;18.30;81.00
57566;DHT22;63999;43.882;-0.310;2022-10-16T05:58:24;18.30;79.60
57566;DHT22;63999;43.882;-0.310;2022-10-16T06:01:00;18.30;79.60
57566;DHT22;63999;43.882;-0.310;2022-10-16T06:03:26;18.30;82.70
57566;DHT22;63999;43.882;-0.310;2022-10-16T06:05:52;18.40;81.50
57566;DHT22;63999;43.882;-0.310;2022-10-16T06:08:19;18.40;81.70
57566;DHT22;63999;43.882;-0.310;2022-10-16T06:10:46;18.40;80.30
57566;DHT22;63999;43.882;-0.310;2022-10-16T06:13:13;18.30;79.50
57566;DHT22;63999;43.882;-0.310;2022-10-16T06:15:40;18.30;79.50
57566;DHT22;63999;43.882;-0.310;2022-10-16T06:18:09;18.30;81.70
57566;DHT22;63999;43.882;-0.310;2022-10-16T06:20:36;18.30;82.00
57566;DHT22;63999;43.882;-0.310;2022-10-16T06:23:02;18.30;81.20
57566;DHT22;63999;43.882;-0.310;2022-10-16T06:25:30;18.30;79.20
57566;DHT22;63999;43.882;-0.310;2022-10-16T06:27:56;18.20;80.90
57566;DHT22;63999;43.882;-0.310;2022-10-16T06:30:22;18.30;80.90
57566;DHT22;63999;43.882;-0.310;2022-10-16T06:32:48;18.20;80.40
57566;DHT22;63999;43.882;-0.310;2022-10-16T06:35:13;18.20;80.90
57566;DHT22;63999;43.882;-0.310;2022-10-16T06:37:39;18.20;79.40
57566;DHT22;63999;43.882;-0.310;2022-10-16T06:40:05;18.20;79.20
57566;DHT22;63999;43.882;-0.310;2022-10-16T06:42:31;18.20;80.20
57566;DHT22;63999;43.882;-0.310;2022-10-16T06:45:00;18.20;79.20
57566;DHT22;63999;43.882;-0.310;2022-10-16T06:47:27;18.20;79.60
57566;DHT22;63999;43.882;-0.310;2022-10-16T06:49:53;18.20;81.20
57566;DHT22;63999;43.882;-0.310;2022-10-16T06:52:18;18.20;80.00
57566;DHT22;63999;43.882;-0.310;2022-10-16T06:54:44;18.20;79.00
57566;DHT22;63999;43.882;-0.310;2022-10-16T06:57:10;18.20;80.10
57566;DHT22;63999;43.882;-0.310;2022-10-16T06:59:35;18.20;79.20
57566;DHT22;63999;43.882;-0.310;2022-10-16T07:02:01;18.10;79.30
57566;DHT22;63999;43.882;-0.310;2022-10-16T07:04:27;18.20;79.40
57566;DHT22;63999;43.882;-0.310;2022-10-16T07:06:53;18.20;79.40
57566;DHT22;63999;43.882;-0.310;2022-10-16T07:09:23;18.20;79.30
57566;DHT22;63999;43.882;-0.310;2022-10-16T07:11:49;18.20;79.00
57566;DHT22;63999;43.882;-0.310;2022-10-16T07:14:19;18.20;81.20
57566;DHT22;63999;43.882;-0.310;2022-10-16T07:16:45;18.20;80.00
57566;DHT22;63999;43.882;-0.310;2022-10-16T07:19:11;18.20;79.40
57566;DHT22;63999;43.882;-0.310;2022-10-16T07:21:40;18.20;79.20
57566;DHT22;63999;43.882;-0.310;2022-10-16T07:24:09;18.20;80.30
57566;DHT22;63999;43.882;-0.310;2022-10-16T07:26:36;18.20;80.00
57566;DHT22;63999;43.882;-0.310;2022-10-16T07:29:05;18.20;80.90
57566;DHT22;63999;43.882;-0.310;2022-10-16T07:31:31;18.20;79.80
57566;DHT22;63999;43.882;-0.310;2022-10-16T07:33:58;18.20;79.60
57566;DHT22;63999;43.882;-0.310;2022-10-16T07:36:24;18.20;80.60
57566;DHT22;63999;43.882;-0.310;2022-10-16T07:38:50;18.20;79.80
57566;DHT22;63999;43.882;-0.310;2022-10-16T07:41:18;18.20;80.30
57566;DHT22;63999;43.882;-0.310;2022-10-16T07:43:49;18.20;81.60
57566;DHT22;63999;43.882;-0.310;2022-10-16T07:46:16;18.20;81.30
57566;DHT22;63999;43.882;-0.310;2022-10-16T07:48:42;18.20;81.30
57566;DHT22;63999;43.882;-0.310;2022-10-16T07:51:12;18.30;82.70
57566;DHT22;63999;43.882;-0.310;2022-10-16T07:53:38;18.30;80.80
57566;DHT22;63999;43.882;-0.310;2022-10-16T07:56:05;18.30;80.80
57566;DHT22;63999;43.882;-0.310;2022-10-16T07:58:32;18.30;80.70
57566;DHT22;63999;43.882;-0.310;2022-10-16T08:00:58;18.30;81.80
57566;DHT22;63999;43.882;-0.310;2022-10-16T08:03:25;18.30;80.80
57566;DHT22;63999;43.882;-0.310;2022-10-16T08:05:51;18.30;81.00
57566;DHT22;63999;43.882;-0.310;2022-10-16T08:08:18;18.30;81.60
57566;DHT22;63999;43.882;-0.310;2022-10-16T08:10:43;18.30;81.30
57566;DHT22;63999;43.882;-0.310;2022-10-16T08:13:09;18.30;81.50
57566;DHT22;63999;43.882;-0.310;2022-10-16T08:15:36;18.30;82.50
57566;DHT22;63999;43.882;-0.310;2022-10-16T08:18:03;18.30;82.70
57566;DHT22;63999;43.882;-0.310;2022-10-16T08:20:31;18.40;81.80
57566;DHT22;63999;43.882;-0.310;2022-10-16T08:22:58;18.40;81.80
57566;DHT22;63999;43.882;-0.310;2022-10-16T08:25:24;18.40;82.30
57566;DHT22;63999;43.882;-0.310;2022-10-16T08:27:50;18.40;83.10
57566;DHT22;63999;43.882;-0.310;2022-10-16T08:30:17;18.40;82.30
57566;DHT22;63999;43.882;-0.310;2022-10-16T08:32:44;18.40;83.00
57566;DHT22;63999;43.882;-0.310;2022-10-16T08:35:11;18.40;83.00
57566;DHT22;63999;43.882;-0.310;2022-10-16T08:37:37;18.50;83.00
57566;DHT22;63999;43.882;-0.310;2022-10-16T08:40:05;18.50;82.60
57566;DHT22;63999;43.882;-0.310;2022-10-16T08:48:22;18.40;81.80
57566;DHT22;63999;43.882;-0.310;2022-10-16T08:50:53;18.40;81.30
57566;DHT22;63999;43.882;-0.310;2022-10-16T08:53:30;18.50;81.50
57566;DHT22;63999;43.882;-0.310;2022-10-16T08:55:57;18.50;81.10
57566;DHT22;63999;43.882;-0.310;2022-10-16T08:58:28;18.50;81.10
57566;DHT22;63999;43.882;-0.310;2022-10-16T09:00:56;18.50;81.40
57566;DHT22;63999;43.882;-0.310;2022-10-16T09:17:01;18.60;80.50
57566;DHT22;63999;43.882;-0.310;2022-10-16T09:22:27;18.60;80.70
57566;DHT22;63999;43.882;-0.310;2022-10-16T09:24:56;18.70;80.00
57566;DHT22;63999;43.882;-0.310;2022-10-16T09:27:26;18.70;80.00
57566;DHT22;63999;43.882;-0.310;2022-10-16T09:29:52;18.70;80.90
57566;DHT22;63999;43.882;-0.310;2022-10-16T09:32:19;18.80;80.80
57566;DHT22;63999;43.882;-0.310;2022-10-16T09:34:49;18.80;80.10
57566;DHT22;63999;43.882;-0.310;2022-10-16T09:37:18;18.80;79.80
57566;DHT22;63999;43.882;-0.310;2022-10-16T09:39:50;18.80;80.50
57566;DHT22;63999;43.882;-0.310;2022-10-16T09:42:23;18.80;79.90
57566;DHT22;63999;43.882;-0.310;2022-10-16T09:44:53;18.80;80.90
57566;DHT22;63999;43.882;-0.310;2022-10-16T09:47:24;18.90;80.10
57566;DHT22;63999;43.882;-0.310;2022-10-16T09:49:55;18.90;80.30
57566;DHT22;63999;43.882;-0.310;2022-10-16T09:52:23;18.90;80.10
57566;DHT22;63999;43.882;-0.310;2022-10-16T09:54:54;18.90;79.90
57566;DHT22;63999;43.882;-0.310;2022-10-16T09:57:21;18.90;79.90
57566;DHT22;63999;43.882;-0.310;2022-10-16T09:59:52;18.90;79.80
57566;DHT22;63999;43.882;-0.310;2022-10-16T10:02:38;19.00;80.20
57566;DHT22;63999;43.882;-0.310;2022-10-16T10:05:27;19.00;80.20
57566;DHT22;63999;43.882;-0.310;2022-10-16T10:07:58;19.00;79.80
57566;DHT22;63999;43.882;-0.310;2022-10-16T10:10:30;19.00;79.50
57566;DHT22;63999;43.882;-0.310;2022-10-16T10:12:56;19.00;80.00
57566;DHT22;63999;43.882;-0.310;2022-10-16T10:15:23;19.10;79.80
57566;DHT22;63999;43.882;-0.310;2022-10-16T10:17:53;19.10;79.80
57566;DHT22;63999;43.882;-0.310;2022-10-16T10:20:28;19.10;80.20
57566;DHT22;63999;43.882;-0.310;2022-10-16T10:22:56;19.10;79.70
57566;DHT22;63999;43.882;-0.310;2022-10-16T10:31:01;19.20;80.00
57566;DHT22;63999;43.882;-0.310;2022-10-16T10:33:37;19.20;80.30
57566;DHT22;63999;43.882;-0.310;2022-10-16T10:39:08;19.30;79.50
57566;DHT22;63999;43.882;-0.310;2022-10-16T10:46:58;19.40;80.00
57566;DHT22;63999;43.882;-0.310;2022-10-16T10:49:48;19.40;80.40
57566;DHT22;63999;43.882;-0.310;2022-10-16T11:00:42;19.50;80.90
57566;DHT22;63999;43.882;-0.310;2022-10-16T11:06:22;19.50;80.20
57566;DHT22;63999;43.882;-0.310;2022-10-16T11:08:56;19.50;80.20
57566;DHT22;63999;43.882;-0.310;2022-10-16T11:11:43;19.50;80.30
57566;DHT22;63999;43.882;-0.310;2022-10-16T11:20:05;19.70;80.20
57566;DHT22;63999;43.882;-0.310;2022-10-16T11:23:30;19.70;80.00
57566;DHT22;63999;43.882;-0.310;2022-10-16T11:25:51;19.70;80.50
57566;DHT22;63999;43.882;-0.310;2022-10-16T11:30:57;19.70;80.40
57566;DHT22;63999;43.882;-0.310;2022-10-16T11:39:07;19.80;80.00
57566;DHT22;63999;43.882;-0.310;2022-10-16T11:41:47;19.90;80.00
57566;DHT22;63999;43.882;-0.310;2022-10-16T11:47:35;19.90;80.00
57566;DHT22;63999;43.882;-0.310;2022-10-16T11:53:03;19.90;80.50
57566;DHT22;63999;43.882;-0.310;2022-10-16T11:55:36;20.00;80.40
57566;DHT22;63999;43.882;-0.310;2022-10-16T12:03:24;20.00;80.90
57566;DHT22;63999;43.882;-0.310;2022-10-16T12:05:58;20.10;81.00
57566;DHT22;63999;43.882;-0.310;2022-10-16T12:08:28;20.10;80.80
57566;DHT22;63999;43.882;-0.310;2022-10-16T12:11:05;20.10;80.50
57566;DHT22;63999;43.882;-0.310;2022-10-16T12:13:39;20.20;80.50
57566;DHT22;63999;43.882;-0.310;2022-10-16T12:18:38;20.10;80.30
57566;DHT22;63999;43.882;-0.310;2022-10-16T12:21:05;20.10;80.20
57566;DHT22;63999;43.882;-0.310;2022-10-16T12:23:53;20.10;80.00
57566;DHT22;63999;43.882;-0.310;2022-10-16T12:26:26;20.10;80.10
57566;DHT22;63999;43.882;-0.310;2022-10-16T12:28:53;20.20;80.20
57566;DHT22;63999;43.882;-0.310;2022-10-16T12:31:19;20.30;80.30
57566;DHT22;63999;43.882;-0.310;2022-10-16T12:34:27;20.30;79.90
57566;DHT22;63999;43.882;-0.310;2022-10-16T12:36:54;20.30;79.80
57566;DHT22;63999;43.882;-0.310;2022-10-16T12:39:27;20.20;79.90
57566;DHT22;63999;43.882;-0.310;2022-10-16T12:44:50;20.30;80.00
57566;DHT22;63999;43.882;-0.310;2022-10-16T12:49:55;20.30;80.10
57566;DHT22;63999;43.882;-0.310;2022-10-16T12:54:56;20.40;80.10
57566;DHT22;63999;43.882;-0.310;2022-10-16T13:00:35;20.50;79.90
57566;DHT22;63999;43.882;-0.310;2022-10-16T13:27:34;20.60;80.20
57566;DHT22;63999;43.882;-0.310;2022-10-16T13:32:59;20.60;79.80
57566;DHT22;63999;43.882;-0.310;2022-10-16T13:35:28;20.70;80.70
57566;DHT22;63999;43.882;-0.310;2022-10-16T13:38:12;20.70;80.40
57566;DHT22;63999;43.882;-0.310;2022-10-16T13:43:39;20.70;80.20
57566;DHT22;63999;43.882;-0.310;2022-10-16T13:46:11;20.80;80.30
57566;DHT22;63999;43.882;-0.310;2022-10-16T13:48:38;20.80;79.90
57566;DHT22;63999;43.882;-0.310;2022-10-16T13:51:05;20.70;80.00
57566;DHT22;63999;43.882;-0.310;2022-10-16T13:53:34;20.80;79.90
57566;DHT22;63999;43.882;-0.310;2022-10-16T13:56:01;20.80;80.40
57566;DHT22;63999;43.882;-0.310;2022-10-16T13:58:27;20.80;79.70
57566;DHT22;63999;43.882;-0.310;2022-10-16T14:00:56;20.80;80.40
57566;DHT22;63999;43.882;-0.310;2022-10-16T14:03:22;20.90;80.60
57566;DHT22;63999;43.882;-0.310;2022-10-16T14:05:55;20.90;80.30
57566;DHT22;63999;43.882;-0.310;2022-10-16T14:08:22;20.90;80.50
57566;DHT22;63999;43.882;-0.310;2022-10-16T14:10:54;20.90;80.40
57566;DHT22;63999;43.882;-0.310;2022-10-16T14:13:23;21.00;80.90
57566;DHT22;63999;43.882;-0.310;2022-10-16T14:15:52;21.10;81.60
57566;DHT22;63999;43.882;-0.310;2022-10-16T14:18:25;21.10;81.70
57566;DHT22;63999;43.882;-0.310;2022-10-16T14:20:52;21.30;80.50
57566;DHT22;63999;43.882;-0.310;2022-10-16T14:23:37;21.40;81.50
57566;DHT22;63999;43.882;-0.310;2022-10-16T14:28:36;21.40;80.00
57566;DHT22;63999;43.882;-0.310;2022-10-16T14:33:50;21.40;79.70
57566;DHT22;63999;43.882;-0.310;2022-10-16T14:36:16;21.40;80.10
57566;DHT22;63999;43.882;-0.310;2022-10-16T14:39:05;21.50;79.60
57566;DHT22;63999;43.882;-0.310;2022-10-16T14:41:41;21.50;79.60
57566;DHT22;63999;43.882;-0.310;2022-10-16T14:44:11;21.50;79.70
57566;DHT22;63999;43.882;-0.310;2022-10-16T14:46:39;21.50;79.60
57566;DHT22;63999;43.882;-0.310;2022-10-16T14:51:38;21.50;79.60
57566;DHT22;63999;43.882;-0.310;2022-10-16T14:54:14;21.50;79.60
57566;DHT22;63999;43.882;-0.310;2022-10-16T14:59:36;21.50;79.50
57566;DHT22;63999;43.882;-0.310;2022-10-16T15:04:54;21.50;79.60
57566;DHT22;63999;43.882;-0.310;2022-10-16T15:07:20;21.50;79.40
57566;DHT22;63999;43.882;-0.310;2022-10-16T15:09:46;21.60;79.30
57566;DHT22;63999;43.882;-0.310;2022-10-16T15:12:12;21.60;79.70
57566;DHT22;63999;43.882;-0.310;2022-10-16T15:14:37;21.70;79.60
57566;DHT22;63999;43.882;-0.310;2022-10-16T15:17:03;21.70;80.00
57566;DHT22;63999;43.882;-0.310;2022-10-16T15:19:29;21.70;79.60
57566;DHT22;63999;43.882;-0.310;2022-10-16T15:21:56;21.70;79.40
57566;DHT22;63999;43.882;-0.310;2022-10-16T15:24:22;21.70;79.50
57566;DHT22;63999;43.882;-0.310;2022-10-16T15:26:48;21.70;79.40
57566;DHT22;63999;43.882;-0.310;2022-10-16T15:29:15;21.70;79.50
57566;DHT22;63999;43.882;-0.310;2022-10-16T15:31:41;21.70;79.30
57566;DHT22;63999;43.882;-0.310;2022-10-16T15:34:12;21.70;79.80
57566;DHT22;63999;43.882;-0.310;2022-10-16T15:36:39;21.70;79.30
57566;DHT22;63999;43.882;-0.310;2022-10-16T15:39:13;21.70;79.20
57566;DHT22;63999;43.882;-0.310;2022-10-16T15:41:39;21.70;79.20
57566;DHT22;63999;43.882;-0.310;2022-10-16T15:44:06;21.70;79.20
57566;DHT22;63999;43.882;-0.310;2022-10-16T15:46:34;21.70;79.00
57566;DHT22;63999;43.882;-0.310;2022-10-16T15:49:00;21.70;79.00
57566;DHT22;63999;43.882;-0.310;2022-10-16T15:51:27;21.70;79.40
57566;DHT22;63999;43.882;-0.310;2022-10-16T15:53:56;21.80;79.10
57566;DHT22;63999;43.882;-0.310;2022-10-16T15:56:22;21.80;79.20
57566;DHT22;63999;43.882;-0.310;2022-10-16T15:58:51;21.80;78.90
57566;DHT22;63999;43.882;-0.310;2022-10-16T16:01:17;21.80;79.10
57566;DHT22;63999;43.882;-0.310;2022-10-16T16:03:43;21.80;79.00
57566;DHT22;63999;43.882;-0.310;2022-10-16T16:06:11;21.80;79.10
57566;DHT22;63999;43.882;-0.310;2022-10-16T16:08:37;21.80;79.10
57566;DHT22;63999;43.882;-0.310;2022-10-16T16:11:09;21.90;79.40
57566;DHT22;63999;43.882;-0.310;2022-10-16T16:13:35;21.90;80.10
57566;DHT22;63999;43.882;-0.310;2022-10-16T16:16:09;21.90;79.70
57566;DHT22;63999;43.882;-0.310;2022-10-16T16:18:36;21.90;79.10
57566;DHT22;63999;43.882;-0.310;2022-10-16T16:21:03;21.90;79.00
57566;DHT22;63999;43.882;-0.310;2022-10-16T16:23:30;21.90;79.00
57566;DHT22;63999;43.882;-0.310;2022-10-16T16:26:14;21.90;79.00
57566;DHT22;63999;43.882;-0.310;2022-10-16T16:28:42;21.90;79.50
57566;DHT22;63999;43.882;-0.310;2022-10-16T16:31:08;21.90;78.90
57566;DHT22;63999;43.882;-0.310;2022-10-16T16:33:34;21.90;78.90
57566;DHT22;63999;43.882;-0.310;2022-10-16T16:36:04;21.90;79.10
57566;DHT22;63999;43.882;-0.310;2022-10-16T16:38:32;21.90;78.90
57566;DHT22;63999;43.882;-0.310;2022-10-16T16:40:58;21.90;78.90
57566;DHT22;63999;43.882;-0.310;2022-10-16T16:43:27;21.90;78.80
57566;DHT22;63999;43.882;-0.310;2022-10-16T16:45:53;21.90;78.90
57566;DHT22;63999;43.882;-0.310;2022-10-16T16:48:20;21.90;78.90
57566;DHT22;63999;43.882;-0.310;2022-10-16T16:50:46;21.90;78.70
57566;DHT22;63999;43.882;-0.310;2022-10-16T16:53:12;21.90;78.70
57566;DHT22;63999;43.882;-0.310;2022-10-16T16:55:37;21.90;78.90
57566;DHT22;63999;43.882;-0.310;2022-10-16T16:58:04;21.90;78.90
57566;DHT22;63999;43.882;-0.310;2022-10-16T17:00:31;21.90;79.00
57566;DHT22;63999;43.882;-0.310;2022-10-16T17:02:57;21.90;79.00
57566;DHT22;63999;43.882;-0.310;2022-10-16T17:05:23;21.90;79.10
57566;DHT22;63999;43.882;-0.310;2022-10-16T17:07:49;21.90;79.10
57566;DHT22;63999;43.882;-0.310;2022-10-16T17:10:15;21.90;79.40
57566;DHT22;63999;43.882;-0.310;2022-10-16T17:12:41;21.90;79.50
57566;DHT22;63999;43.882;-0.310;2022-10-16T17:15:07;21.90;79.70
57566;DHT22;63999;43.882;-0.310;2022-10-16T17:17:33;21.90;79.70
57566;DHT22;63999;43.882;-0.310;2022-10-16T17:19:58;21.90;79.50
57566;DHT22;63999;43.882;-0.310;2022-10-16T17:22:24;22.00;79.40
57566;DHT22;63999;43.882;-0.310;2022-10-16T17:24:50;22.00;79.50
57566;DHT22;63999;43.882;-0.310;2022-10-16T17:27:17;22.00;79.40
57566;DHT22;63999;43.882;-0.310;2022-10-16T17:29:43;22.00;79.10
57566;DHT22;63999;43.882;-0.310;2022-10-16T17:32:09;22.00;79.10
57566;DHT22;63999;43.882;-0.310;2022-10-16T17:34:36;22.00;78.90
57566;DHT22;63999;43.882;-0.310;2022-10-16T17:37:02;22.00;79.20
57566;DHT22;63999;43.882;-0.310;2022-10-16T17:39:28;22.00;79.00
57566;DHT22;63999;43.882;-0.310;2022-10-16T17:41:54;22.00;78.80
57566;DHT22;63999;43.882;-0.310;2022-10-16T17:44:20;22.00;78.80
57566;DHT22;63999;43.882;-0.310;2022-10-16T17:46:52;22.00;78.70
57566;DHT22;63999;43.882;-0.310;2022-10-16T17:49:19;22.00;78.90
57566;DHT22;63999;43.882;-0.310;2022-10-16T17:51:45;22.00;78.60